Aarschot, Belgium
Current Conditions -  °F | °C
As of 9:25 PM on Thursday 23 Oct 2014 (Local Time) from EBDT Reporting Station
Broken Clouds Broken Clouds  
Wind Chill: 12°   Ceiling: 4800
Heat Index: 12°   Visibility: 6mi
Dew Point:   Wind: 10mph
Humidity: 82%   Direction: 190°S
Pressure: 30.18"   Gusts: NA
Location:  50.99°N, 4.84°E
Report Text: EBDT 231925Z AUTO 19009KT 9999 SCT042/// BKN048/// 12/09 Q1022 BLU
Loading
Personal Weather Stations






























Interactive Weather Map
Tropical Storm Tracking
New forecast layout! Learn more

10-Day Weather Forecast

Advertisements
Track Severe Weather on mobile